Time;durP1;ratioP1;P1;durP2;ratioP2;P2;SDS_P1;SDS_P2;PMS_P1;PMS_P2;Temp;Humidity;BMP_temperature;BMP_pressure;BME280_temperature;BME280_humidity;BME280_pressure;Samples;Min_cycle;Max_cycle;Signal;HPM_P1;HPM_P2
2022/09/15 00:00:43;;;;;;;8.60;4.50;;;;;;;19.55;68.04;97654.22;238992;1191;139042;-58
2022/09/15 00:06:08;;;;;;;6.00;4.80;;;;;;;19.54;68.09;97641.30;237980;1190;142251;-56
2022/09/15 00:11:20;;;;;;;8.30;5.70;;;;;;;19.56;68.17;97623.40;238948;1190;140346;-56
2022/09/15 00:16:25;;;;;;;7.00;6.20;;;;;;;19.55;68.21;97617.96;239046;1191;140397;-57
2022/09/15 00:21:31;;;;;;;10.50;6.40;;;;;;;19.55;68.38;97604.69;238894;1191;140278;-57
2022/09/15 00:26:34;;;;;;;6.80;5.70;;;;;;;19.52;68.42;97598.39;238633;1191;139465;-57
2022/09/15 00:31:37;;;;;;;8.40;5.50;;;;;;;19.51;68.05;97591.35;238611;1191;140671;-55
2022/09/15 00:36:40;;;;;;;8.60;6.00;;;;;;;19.53;68.38;97578.17;238731;1192;139652;-56
2022/09/15 00:41:43;;;;;;;10.90;6.50;;;;;;;19.56;68.50;97568.59;238846;1192;139471;-57
2022/09/15 00:46:50;;;;;;;8.90;6.80;;;;;;;19.57;68.42;97574.88;238871;1191;139551;-56
2022/09/15 00:52:19;;;;;;;12.30;5.60;;;;;;;19.56;68.19;97578.13;238942;1191;138728;-57
2022/09/15 00:57:39;;;;;;;8.10;6.00;;;;;;;19.54;68.39;97564.83;238938;1190;142686;-58
2022/09/15 01:02:44;;;;;;;8.70;6.60;;;;;;;19.56;68.40;97556.54;238869;1191;139318;-56
2022/09/15 01:08:02;;;;;;;11.50;8.20;;;;;;;19.55;68.40;97541.04;238451;1191;139287;-57
2022/09/15 01:13:08;;;;;;;14.80;10.00;;;;;;;19.51;68.39;97537.67;237918;1191;140003;-58
2022/09/15 01:18:21;;;;;;;16.10;8.70;;;;;;;19.46;68.48;97538.15;238692;1192;140522;-57
2022/09/15 01:23:33;;;;;;;14.70;8.50;;;;;;;19.43;68.51;97525.71;238864;1190;140231;-58
2022/09/15 01:29:13;;;;;;;14.70;9.30;;;;;;;19.43;68.56;97513.51;238662;1192;139549;-58
2022/09/15 01:34:19;;;;;;;16.30;9.90;;;;;;;19.45;68.72;97508.83;238656;1191;140101;-56
2022/09/15 01:39:26;;;;;;;12.90;9.70;;;;;;;19.46;68.81;97510.67;238647;1190;139388;-57
2022/09/15 01:44:37;;;;;;;11.00;8.70;;;;;;;19.43;68.85;97516.21;238916;1190;139016;-57
2022/09/15 01:49:51;;;;;;;12.30;8.90;;;;;;;19.46;68.77;97522.16;238869;1191;140799;-56
2022/09/15 01:54:59;;;;;;;13.90;9.70;;;;;;;19.49;68.80;97515.89;238638;1192;140557;-57
2022/09/15 02:00:03;;;;;;;16.40;10.30;;;;;;;19.50;69.00;97509.10;238783;1192;139579;-57
2022/09/15 02:05:24;;;;;;;13.20;10.10;;;;;;;19.50;68.90;97507.48;239010;1191;139953;-57
2022/09/15 02:10:58;;;;;;;12.30;8.90;;;;;;;19.50;69.14;97510.39;238656;1192;139499;-57
2022/09/15 02:16:03;;;;;;;12.50;9.30;;;;;;;19.56;69.13;97515.27;238503;1190;139704;-58
2022/09/15 02:21:30;;;;;;;;;;;;;;;19.61;69.07;97516.33;238876;1191;142821;-57
2022/09/15 02:26:34;;;;;;;14.70;11.00;;;;;;;19.59;68.97;97506.80;238670;1190;126126;-57
2022/09/15 02:31:39;;;;;;;13.00;10.50;;;;;;;19.57;69.03;97503.30;238822;1191;139630;-56
2022/09/15 02:36:43;;;;;;;13.70;9.70;;;;;;;19.53;68.89;97491.65;238725;1190;139918;-56
2022/09/15 02:41:47;;;;;;;13.60;10.20;;;;;;;19.49;68.87;97485.86;238888;1190;140149;-57
2022/09/15 02:46:51;;;;;;;12.10;10.20;;;;;;;19.47;68.92;97480.67;238930;1190;140673;-56
2022/09/15 02:51:54;;;;;;;13.40;9.90;;;;;;;19.48;68.99;97481.80;238798;1192;139755;-55
2022/09/15 02:56:58;;;;;;;17.00;10.80;;;;;;;19.48;69.07;97478.20;238670;1191;139454;-55
2022/09/15 03:02:02;;;;;;;10.90;9.40;;;;;;;19.43;68.93;97476.31;238713;1192;139954;-56
2022/09/15 03:07:05;;;;;;;10.40;9.00;;;;;;;19.40;68.92;97472.02;238644;1192;140308;-56
2022/09/15 03:12:08;;;;;;;11.20;9.90;;;;;;;19.43;69.00;97473.85;238800;1190;139912;-56
2022/09/15 03:17:12;;;;;;;11.30;9.40;;;;;;;19.45;69.12;97469.98;238938;1190;139650;-56
2022/09/15 03:22:15;;;;;;;13.70;9.70;;;;;;;19.44;69.27;97472.59;238459;1192;139730;-57
2022/09/15 03:27:18;;;;;;;12.50;9.30;;;;;;;19.42;69.18;97474.33;238604;1192;138921;-55
2022/09/15 03:32:20;;;;;;;15.70;9.20;;;;;;;19.43;69.20;97475.90;238768;1191;212538;-56
2022/09/15 03:37:24;;;;;;;12.60;8.80;;;;;;;19.47;69.26;97473.95;238257;1190;139602;-56
2022/09/15 03:42:27;;;;;;;18.20;10.10;;;;;;;19.48;69.35;97466.15;238554;1191;139580;-58
2022/09/15 03:47:32;;;;;;;13.00;9.90;;;;;;;19.48;69.45;97450.16;238737;1192;139549;-57
2022/09/15 03:52:35;;;;;;;13.30;8.40;;;;;;;19.48;69.38;97447.27;238612;1192;138840;-56
2022/09/15 03:57:38;;;;;;;11.50;7.70;;;;;;;19.50;69.49;97450.92;238761;1191;140416;-57
2022/09/15 04:02:41;;;;;;;9.30;7.90;;;;;;;19.55;69.44;97444.88;238831;1190;140635;-58
2022/09/15 04:07:44;;;;;;;10.40;8.60;;;;;;;19.60;69.65;97436.96;238732;1190;138965;-57
2022/09/15 04:12:47;;;;;;;13.90;8.20;;;;;;;19.66;69.53;97443.88;238517;1190;139092;-57
2022/09/15 04:17:50;;;;;;;8.50;7.20;;;;;;;19.67;69.51;97440.40;238635;1192;139311;-57
2022/09/15 04:22:53;;;;;;;10.80;7.40;;;;;;;19.68;69.40;97440.53;238851;1192;140124;-58
2022/09/15 04:27:56;;;;;;;10.90;7.60;;;;;;;19.69;69.42;97436.60;238483;1190;140556;-58
2022/09/15 04:33:01;;;;;;;;;;;;;;;19.69;69.43;97433.28;238625;1192;141525;-57
2022/09/15 04:38:05;;;;;;;9.30;7.00;;;;;;;19.66;69.40;97430.89;238657;1192;125914;-57
2022/09/15 04:43:08;;;;;;;8.50;6.20;;;;;;;19.61;69.53;97429.42;238589;1190;139085;-56
2022/09/15 04:48:11;;;;;;;9.30;6.50;;;;;;;19.61;69.41;97432.66;238912;1190;140746;-57
2022/09/15 04:53:14;;;;;;;9.80;6.60;;;;;;;19.66;69.47;97424.61;238909;1192;140135;-57
2022/09/15 04:58:17;;;;;;;7.80;5.90;;;;;;;19.67;69.50;97420.85;238698;1191;140351;-58
2022/09/15 05:03:20;;;;;;;9.70;6.50;;;;;;;19.67;69.47;97429.35;238794;1190;138970;-57
2022/09/15 05:08:23;;;;;;;8.90;5.60;;;;;;;19.68;69.53;97424.46;238835;1191;138961;-58
2022/09/15 05:13:27;;;;;;;8.00;5.40;;;;;;;19.75;69.61;97426.98;238638;1192;140795;-57
2022/09/15 05:18:30;;;;;;;8.50;5.60;;;;;;;19.81;69.61;97429.79;238459;1192;139269;-57
2022/09/15 05:23:34;;;;;;;10.80;5.80;;;;;;;19.86;69.56;97430.33;237890;1190;140248;-58
2022/09/15 05:28:38;;;;;;;10.20;6.30;;;;;;;19.86;69.45;97427.98;238978;1190;139174;-58
2022/09/15 05:33:41;;;;;;;8.10;5.30;;;;;;;19.88;69.60;97425.23;238661;1190;140000;-58
2022/09/15 05:38:44;;;;;;;7.60;5.20;;;;;;;19.93;69.47;97424.58;238539;1192;140488;-58
2022/09/15 05:43:49;;;;;;;9.10;5.90;;;;;;;19.99;69.40;97423.63;238794;1190;140623;-58
2022/09/15 05:48:55;;;;;;;;;;;;;;;20.02;69.41;97428.59;238988;1191;139442;-58
2022/09/15 05:53:58;;;;;;;8.20;5.70;;;;;;;20.03;69.41;97429.02;238710;1191;125542;-58
2022/09/15 05:59:01;;;;;;;6.90;5.50;;;;;;;20.02;69.25;97435.63;238938;1190;139539;-59
2022/09/15 06:04:05;;;;;;;8.40;5.70;;;;;;;20.05;69.22;97435.81;238691;1191;139960;-58
2022/09/15 06:09:08;;;;;;;7.00;5.50;;;;;;;20.10;69.31;97429.04;238982;1190;139574;-59
2022/09/15 06:14:12;;;;;;;8.30;6.00;;;;;;;20.16;69.31;97430.28;238692;1190;139317;-59
2022/09/15 06:19:15;;;;;;;8.40;5.60;;;;;;;20.21;69.33;97428.13;238797;1191;139993;-58
2022/09/15 06:24:18;;;;;;;6.80;4.70;;;;;;;20.24;69.17;97427.78;238758;1191;140432;-58
2022/09/15 06:29:21;;;;;;;8.40;5.00;;;;;;;20.27;69.01;97431.59;238824;1191;139925;-57
2022/09/15 06:34:24;;;;;;;7.40;5.30;;;;;;;20.30;69.05;97436.97;238726;1192;139152;-58
2022/09/15 06:39:26;;;;;;;6.30;4.80;;;;;;;20.34;69.24;97440.53;238686;1192;138630;-58
2022/09/15 06:44:29;;;;;;;8.50;5.30;;;;;;;20.41;69.15;97444.36;238673;1191;139206;-58
2022/09/15 06:49:33;;;;;;;5.30;4.40;;;;;;;20.39;68.94;97446.31;238781;1191;139978;-58
2022/09/15 06:54:36;;;;;;;7.00;4.40;;;;;;;20.40;69.03;97456.45;238543;1192;139908;-57
2022/09/15 06:59:39;;;;;;;6.90;4.40;;;;;;;20.47;69.04;97463.59;238732;1191;140002;-58
2022/09/15 07:04:45;;;;;;;9.40;4.90;;;;;;;20.53;69.07;97467.39;238848;1191;139814;-58
2022/09/15 07:09:48;;;;;;;6.80;4.30;;;;;;;20.55;68.93;97473.45;238543;1192;139983;-57
2022/09/15 07:14:51;;;;;;;7.60;3.50;;;;;;;20.54;68.87;97487.90;238704;1190;139435;-57
2022/09/15 07:19:54;;;;;;;4.60;3.10;;;;;;;20.53;68.76;97504.23;238778;1191;139843;-58
2022/09/15 07:24:57;;;;;;;6.80;3.20;;;;;;;20.55;68.79;97528.67;238632;1191;139452;-56
2022/09/15 07:30:00;;;;;;;2.40;1.60;;;;;;;20.54;68.72;97554.23;238708;1191;138926;-58
2022/09/15 07:35:04;;;;;;;0.60;0.40;;;;;;;20.38;67.97;97560.75;238818;1191;140232;-58
2022/09/15 07:40:08;;;;;;;1.20;0.20;;;;;;;20.12;67.30;97581.55;238589;1191;139742;-58
2022/09/15 07:45:11;;;;;;;6.60;3.10;;;;;;;19.81;67.13;97597.98;238564;1191;140325;-58
2022/09/15 07:50:14;;;;;;;0.50;0.40;;;;;;;19.57;66.99;97612.20;238578;1191;140709;-57
2022/09/15 07:55:17;;;;;;;0.70;0.40;;;;;;;19.41;67.24;97618.95;238565;1191;139334;-58
2022/09/15 08:00:20;;;;;;;1.20;0.80;;;;;;;19.27;67.27;97639.08;238703;1191;139339;-58
2022/09/15 08:05:26;;;;;;;2.00;0.70;;;;;;;19.18;67.66;97646.69;238786;1191;139064;-58
2022/09/15 08:10:29;;;;;;;1.30;0.50;;;;;;;19.10;67.68;97654.21;238862;1190;139101;-58
2022/09/15 08:15:35;;;;;;;2.40;0.70;;;;;;;19.03;67.85;97660.58;238461;1190;140355;-57
2022/09/15 08:20:38;;;;;;;;;;;;;;;19.04;68.01;97668.10;238633;1191;139999;-57
2022/09/15 08:25:41;;;;;;;1.00;0.70;;;;;;;19.02;68.19;97682.13;238843;1190;126860;-59
2022/09/15 08:30:44;;;;;;;14.90;9.30;;;;;;;19.00;68.47;97679.69;238719;1191;140500;-56
2022/09/15 08:35:47;;;;;;;12.80;9.70;;;;;;;19.01;68.64;97691.58;238596;1192;139807;-57
2022/09/15 08:40:57;;;;;;;1.60;1.00;;;;;;;19.08;68.78;97700.23;238746;1191;140393;-59
2022/09/15 08:46:07;;;;;;;3.50;1.00;;;;;;;19.15;68.90;97709.48;238573;1191;140008;-60
2022/09/15 08:51:21;;;;;;;7.20;1.60;;;;;;;19.17;68.85;97713.12;238830;1190;139172;-57
2022/09/15 08:56:26;;;;;;;5.80;1.60;;;;;;;19.19;68.91;97719.16;238655;1191;139482;-58
2022/09/15 09:02:06;;;;;;;10.40;1.90;;;;;;;19.29;69.06;97719.80;238642;1191;139490;-57
2022/09/15 09:07:21;;;;;;;6.20;1.40;;;;;;;19.45;69.03;97728.13;238648;1191;140178;-58
2022/09/15 09:13:01;;;;;;;3.30;1.10;;;;;;;19.58;69.23;97738.36;238746;1191;139024;-56
2022/09/15 09:18:45;;;;;;;1.50;0.80;;;;;;;19.69;68.93;97749.13;238661;1191;139252;-58
2022/09/15 09:23:51;;;;;;;2.60;1.20;;;;;;;19.72;68.74;97757.81;238375;1191;139840;-57
2022/09/15 09:28:59;;;;;;;0.90;0.90;;;;;;;19.80;68.80;97773.09;238696;1191;141656;-57
2022/09/15 09:34:11;;;;;;;3.10;1.10;;;;;;;19.82;68.23;97785.10;238523;1191;141995;-59
2022/09/15 09:39:14;;;;;;;1.30;1.20;;;;;;;19.83;68.19;97785.39;238689;1191;139564;-57
2022/09/15 09:44:18;;;;;;;1.60;1.20;;;;;;;19.88;68.20;97778.44;238613;1191;139236;-58
2022/09/15 09:49:23;;;;;;;1.40;1.30;;;;;;;19.94;68.12;97775.96;238668;1192;139819;-57
2022/09/15 09:54:30;;;;;;;9.30;2.00;;;;;;;20.11;68.07;97786.77;238577;1191;143473;-57
2022/09/15 09:59:47;;;;;;;3.00;1.30;;;;;;;20.19;67.84;97788.52;238722;1191;140228;-56
2022/09/15 10:05:04;;;;;;;1.80;1.60;;;;;;;20.22;67.70;97789.70;238803;1191;140064;-56
2022/09/15 10:10:19;;;;;;;3.00;1.40;;;;;;;20.26;67.58;97784.85;238866;1190;151538;-58
2022/09/15 10:15:27;;;;;;;1.30;1.20;;;;;;;20.26;67.11;97787.45;238723;1190;139550;-57
2022/09/15 10:20:36;;;;;;;11.90;8.40;;;;;;;20.23;67.07;97790.23;238484;1191;139088;-58
2022/09/15 10:25:39;;;;;;;4.30;1.50;;;;;;;20.21;66.64;97803.85;238641;1191;140164;-57
2022/09/15 10:31:12;;;;;;;2.00;1.40;;;;;;;20.15;66.50;97801.72;238851;1190;139907;-58
2022/09/15 10:36:28;;;;;;;4.50;1.50;;;;;;;20.07;66.42;97797.27;238900;1190;139984;-58
2022/09/15 10:41:41;;;;;;;2.80;1.50;;;;;;;20.05;66.47;97792.29;238704;1191;139349;-57
2022/09/15 10:46:57;;;;;;;2.90;1.40;;;;;;;20.03;66.47;97791.62;238665;1191;140108;-59
2022/09/15 10:52:22;;;;;;;2.30;1.50;;;;;;;20.04;66.37;97792.27;238993;1190;140253;-58
2022/09/15 10:57:44;;;;;;;2.50;1.60;;;;;;;20.05;66.63;97789.61;239094;1190;139343;-57
2022/09/15 11:03:07;;;;;;;2.60;1.60;;;;;;;20.07;66.62;97790.27;239102;1190;141380;-57
2022/09/15 11:08:26;;;;;;;2.80;1.60;;;;;;;20.12;66.63;97787.02;239069;1190;139421;-57
2022/09/15 11:14:05;;;;;;;2.40;1.80;;;;;;;20.15;66.63;97783.23;239118;1190;140135;-57
2022/09/15 11:19:22;;;;;;;7.30;2.10;;;;;;;20.18;66.68;97773.27;239006;1190;138587;-57
2022/09/15 11:24:47;;;;;;;3.00;2.30;;;;;;;20.18;66.81;97771.48;239114;1190;138960;-58
2022/09/15 11:29:58;;;;;;;7.10;2.20;;;;;;;20.10;66.49;97777.55;238882;1190;139437;-58
2022/09/15 11:35:25;;;;;;;4.70;2.40;;;;;;;20.09;66.68;97768.59;239263;1190;139615;-57
2022/09/15 11:40:36;;;;;;;3.70;2.20;;;;;;;20.16;66.75;97754.44;238936;1191;139271;-57
2022/09/15 11:45:45;;;;;;;3.80;2.70;;;;;;;20.23;66.84;97756.31;238930;1190;139233;-57
2022/09/15 11:50:53;;;;;;;6.00;2.70;;;;;;;20.30;66.72;97745.19;238875;1190;138875;-57
2022/09/15 11:56:04;;;;;;;4.30;2.60;;;;;;;20.41;66.80;97737.14;238982;1190;139950;-58
2022/09/15 12:01:17;;;;;;;3.40;2.10;;;;;;;20.56;66.37;97744.54;239060;1190;140750;-58
2022/09/15 12:06:44;;;;;;;3.00;2.30;;;;;;;20.62;66.10;97737.27;239012;1191;140259;-57
2022/09/15 12:11:53;;;;;;;3.10;2.00;;;;;;;20.72;65.97;97740.89;239037;1190;141711;-57
2022/09/15 12:16:57;;;;;;;2.50;2.10;;;;;;;20.73;65.70;97736.58;239109;1190;138930;-58
2022/09/15 12:22:00;;;;;;;4.60;2.00;;;;;;;20.68;65.48;97738.44;239153;1190;138935;-57
2022/09/15 12:27:03;;;;;;;2.90;2.00;;;;;;;20.63;65.27;97728.69;239095;1190;139525;-57
2022/09/15 12:32:16;;;;;;;3.00;1.70;;;;;;;20.61;65.02;97724.13;239040;1190;140148;-58
2022/09/15 12:37:19;;;;;;;6.80;2.40;;;;;;;20.62;65.25;97720.45;239156;1190;138742;-57
2022/09/15 12:42:32;;;;;;;3.10;2.10;;;;;;;20.67;65.22;97721.45;239041;1190;140164;-57
2022/09/15 12:47:39;;;;;;;6.10;2.10;;;;;;;20.69;65.26;97717.23;239175;1190;139615;-57
2022/09/15 12:52:56;;;;;;;4.60;2.30;;;;;;;20.69;64.97;97710.48;238920;1190;139505;-56
2022/09/15 12:58:25;;;;;;;6.60;2.20;;;;;;;20.67;64.95;97714.60;239089;1190;138879;-57
2022/09/15 13:03:38;;;;;;;3.50;2.30;;;;;;;20.73;64.83;97715.98;238885;1190;140371;-57
2022/09/15 13:08:46;;;;;;;4.50;2.30;;;;;;;20.73;64.77;97698.17;239028;1190;139913;-58
2022/09/15 13:14:19;;;;;;;4.50;2.50;;;;;;;20.77;64.84;97708.37;238995;1190;139535;-57
2022/09/15 13:19:40;;;;;;;4.70;2.80;;;;;;;20.80;64.79;97709.58;238616;1191;138931;-57
2022/09/15 13:24:49;;;;;;;4.60;2.80;;;;;;;20.81;64.59;97709.65;238743;1191;139032;-58
2022/09/15 13:30:02;;;;;;;3.50;2.10;;;;;;;20.74;64.54;97695.44;238652;1192;139916;-58
2022/09/15 13:35:06;;;;;;;6.50;2.40;;;;;;;20.75;64.68;97690.92;238848;1191;140602;-58
2022/09/15 13:40:50;;;;;;;3.10;2.40;;;;;;;20.76;64.71;97688.45;238763;1191;140054;-58
2022/09/15 13:46:27;;;;;;;3.90;2.60;;;;;;;20.75;64.73;97688.08;238660;1190;139295;-57
2022/09/15 13:51:31;;;;;;;4.40;2.40;;;;;;;20.73;64.87;97689.53;238732;1191;139222;-58
2022/09/15 13:56:38;;;;;;;3.00;2.30;;;;;;;20.69;64.81;97689.52;238560;1191;140010;-58
2022/09/15 14:01:43;;;;;;;7.00;2.90;;;;;;;20.60;64.67;97685.56;238511;1191;139522;-58
2022/09/15 14:06:50;;;;;;;4.10;1.80;;;;;;;20.61;64.87;97675.80;238237;1190;141847;-59
2022/09/15 14:11:58;;;;;;;5.50;3.30;;;;;;;20.67;65.03;97669.21;238631;1191;141153;-58
2022/09/15 14:17:01;;;;;;;3.70;2.20;;;;;;;20.71;64.98;97670.86;238633;1191;140281;-58
2022/09/15 14:22:23;;;;;;;4.00;2.50;;;;;;;20.70;64.84;97663.00;238402;1191;139175;-57
2022/09/15 14:27:30;;;;;;;3.00;2.10;;;;;;;20.70;64.57;97656.60;238530;1191;139155;-58
2022/09/15 14:32:38;;;;;;;6.10;2.20;;;;;;;20.65;64.53;97657.17;238432;1191;140624;-57
2022/09/15 14:37:47;;;;;;;5.50;2.00;;;;;;;20.59;64.38;97652.61;238211;1191;139400;-57
2022/09/15 14:42:50;;;;;;;4.70;2.10;;;;;;;20.53;64.56;97654.10;238485;1191;141006;-58
2022/09/15 14:47:58;;;;;;;5.10;2.20;;;;;;;20.55;64.72;97649.10;238373;1191;141017;-58
2022/09/15 14:53:12;;;;;;;4.30;2.30;;;;;;;20.58;64.72;97640.84;238622;1191;139871;-57
2022/09/15 14:58:24;;;;;;;6.30;2.90;;;;;;;20.56;64.68;97650.02;238585;1191;139193;-58
2022/09/15 15:03:30;;;;;;;5.00;3.00;;;;;;;20.52;64.72;97662.30;238329;1192;139279;-56
2022/09/15 15:08:41;;;;;;;7.30;6.30;;;;;;;20.49;64.72;97657.56;238437;1192;139345;-57
2022/09/15 15:13:48;;;;;;;6.70;2.80;;;;;;;20.49;64.67;97657.58;238351;1191;142067;-58
2022/09/15 15:18:54;;;;;;;4.90;2.40;;;;;;;20.50;64.80;97649.01;238404;1191;139463;-58
2022/09/15 15:23:58;;;;;;;6.50;3.10;;;;;;;20.47;64.72;97642.70;238396;1191;139407;-58
2022/09/15 15:29:01;;;;;;;2.90;2.40;;;;;;;20.44;64.86;97635.77;238319;1191;139516;-59
2022/09/15 15:34:05;;;;;;;4.10;2.60;;;;;;;20.36;64.86;97637.38;238240;1192;139621;-57
2022/09/15 15:39:23;;;;;;;3.90;2.50;;;;;;;20.34;64.87;97633.91;238394;1192;140203;-58
2022/09/15 15:44:28;;;;;;;4.10;3.00;;;;;;;20.32;65.22;97632.52;238388;1192;140016;-57
2022/09/15 15:49:31;;;;;;;4.60;2.80;;;;;;;20.29;65.39;97634.45;238363;1192;139740;-58
2022/09/15 15:54:34;;;;;;;30.00;9.90;;;;;;;20.30;66.12;97627.85;238354;1191;139356;-57
2022/09/15 15:59:37;;;;;;;13.90;6.10;;;;;;;20.37;67.09;97623.10;238316;1192;140508;-57
2022/09/15 16:04:40;;;;;;;22.70;7.70;;;;;;;20.43;67.22;97631.23;238250;1192;141289;-57
2022/09/15 16:09:44;;;;;;;11.70;5.30;;;;;;;20.54;67.45;97629.23;238406;1191;140055;-57
2022/09/15 16:14:47;;;;;;;8.50;4.80;;;;;;;20.64;67.53;97625.63;238482;1191;139480;-57
2022/09/15 16:19:50;;;;;;;9.00;4.30;;;;;;;20.67;67.59;97635.11;238569;1191;139717;-58
2022/09/15 16:24:55;;;;;;;9.90;3.70;;;;;;;20.70;67.31;97642.58;238544;1191;139471;-58
2022/09/15 16:30:02;;;;;;;19.30;15.20;;;;;;;20.68;66.92;97651.61;238524;1192;140125;-59
2022/09/15 16:35:22;;;;;;;5.60;3.70;;;;;;;20.65;66.71;97650.05;238585;1191;140525;-58
2022/09/15 16:40:25;;;;;;;5.10;3.50;;;;;;;20.49;66.32;97654.16;238342;1191;139455;-58
2022/09/15 16:45:36;;;;;;;5.40;3.80;;;;;;;20.34;66.38;97666.27;238343;1191;139136;-58
2022/09/15 16:50:43;;;;;;;5.10;3.70;;;;;;;20.24;66.47;97669.48;238263;1191;141286;-57
2022/09/15 16:56:10;;;;;;;3.50;3.10;;;;;;;20.12;66.52;97673.90;238455;1191;139983;-58
2022/09/15 17:01:19;;;;;;;5.50;3.80;;;;;;;20.08;66.84;97677.60;238347;1191;139294;-57
2022/09/15 17:06:22;;;;;;;6.60;4.00;;;;;;;20.04;66.90;97677.79;238247;1192;139786;-59
2022/09/15 17:11:27;;;;;;;6.30;3.90;;;;;;;19.96;67.00;97677.28;238645;1191;139173;-59
2022/09/15 17:16:31;;;;;;;8.40;3.50;;;;;;;19.90;67.11;97677.23;238520;1191;138914;-59
2022/09/15 17:21:34;;;;;;;4.20;3.00;;;;;;;19.91;67.30;97674.30;238409;1191;139906;-57
2022/09/15 17:26:37;;;;;;;6.00;3.70;;;;;;;19.94;67.39;97679.20;238281;1191;140013;-56
2022/09/15 17:31:40;;;;;;;6.00;5.40;;;;;;;19.91;67.32;97679.12;238453;1191;139342;-58
2022/09/15 17:36:44;;;;;;;10.20;8.10;;;;;;;19.78;67.14;97687.92;238122;1192;139260;-57
2022/09/15 17:41:47;;;;;;;8.40;7.50;;;;;;;19.68;66.91;97692.92;238358;1192;139539;-57
2022/09/15 17:46:50;;;;;;;8.50;7.40;;;;;;;19.61;66.86;97695.74;238571;1192;139897;-58
2022/09/15 17:51:53;;;;;;;9.50;6.80;;;;;;;19.54;66.76;97693.39;238488;1192;139033;-58
2022/09/15 17:56:56;;;;;;;10.20;7.70;;;;;;;19.45;66.73;97695.20;238330;1191;139474;-59
2022/09/15 18:01:59;;;;;;;8.50;7.20;;;;;;;19.35;66.60;97699.19;238534;1192;139533;-58
2022/09/15 18:07:02;;;;;;;7.00;6.30;;;;;;;19.25;66.51;97704.61;238388;1191;139805;-58
2022/09/15 18:12:08;;;;;;;9.10;7.20;;;;;;;19.20;66.60;97722.41;238401;1191;140163;-57
2022/09/15 18:17:11;;;;;;;;;;;;;;;19.21;66.73;97729.73;238523;1191;139284;-58
2022/09/15 18:22:15;;;;;;;9.40;7.30;;;;;;;19.16;66.68;97740.12;238559;1191;125728;-56
2022/09/15 18:27:18;;;;;;;9.80;7.00;;;;;;;19.06;66.61;97751.05;238386;1192;139910;-57
2022/09/15 18:32:21;;;;;;;7.90;5.70;;;;;;;18.97;66.63;97748.70;238519;1190;139312;-57
2022/09/15 18:37:24;;;;;;;15.20;9.10;;;;;;;18.90;66.62;97739.79;238329;1192;139200;-56
2022/09/15 18:42:27;;;;;;;6.10;4.40;;;;;;;18.87;66.42;97732.02;238437;1191;140125;-57
2022/09/15 18:47:34;;;;;;;10.40;4.80;;;;;;;18.84;66.34;97740.48;238617;1192;139236;-57
2022/09/15 18:52:39;;;;;;;7.60;4.20;;;;;;;18.83;66.47;97741.40;238421;1192;139519;-57
2022/09/15 18:57:43;;;;;;;5.80;4.30;;;;;;;18.82;66.44;97737.52;238259;1192;139649;-57
2022/09/15 19:02:46;;;;;;;7.20;4.90;;;;;;;18.77;66.09;97743.54;238352;1191;139784;-58
2022/09/15 19:07:49;;;;;;;7.60;4.70;;;;;;;18.69;66.18;97735.02;238293;1192;139903;-57
2022/09/15 19:12:52;;;;;;;7.90;4.80;;;;;;;18.65;66.09;97731.91;238404;1191;140402;-60
2022/09/15 19:17:56;;;;;;;9.80;4.90;;;;;;;18.63;66.12;97735.70;238320;1192;139920;-60
2022/09/15 19:22:59;;;;;;;9.50;5.10;;;;;;;18.58;66.14;97734.86;238495;1192;139123;-59
2022/09/15 19:28:02;;;;;;;10.80;4.60;;;;;;;18.51;65.99;97739.34;238182;1192;139015;-58
2022/09/15 19:33:05;;;;;;;8.60;5.60;;;;;;;18.40;66.01;97752.38;238242;1192;140532;-59
2022/09/15 19:38:08;;;;;;;6.80;4.80;;;;;;;18.29;65.82;97764.06;238299;1191;140996;-58
2022/09/15 19:43:11;;;;;;;10.80;6.20;;;;;;;18.24;65.93;97770.56;238448;1192;140124;-59
2022/09/15 19:48:14;;;;;;;15.60;8.10;;;;;;;18.25;65.99;97781.30;238346;1191;141486;-58
2022/09/15 19:53:17;;;;;;;17.60;9.00;;;;;;;18.24;66.35;97783.36;238507;1191;139488;-59
2022/09/15 19:58:20;;;;;;;15.90;9.10;;;;;;;18.23;66.25;97781.13;238504;1191;139739;-57
2022/09/15 20:03:26;;;;;;;15.40;8.90;;;;;;;18.15;66.30;97786.55;238543;1192;139517;-57
2022/09/15 20:08:29;;;;;;;13.30;7.80;;;;;;;18.04;66.22;97791.17;238338;1192;139922;-58
2022/09/15 20:13:32;;;;;;;14.20;9.00;;;;;;;18.01;66.53;97791.95;238653;1192;140500;-58
2022/09/15 20:18:40;;;;;;;16.90;10.20;;;;;;;18.02;66.73;97795.34;238691;1190;139836;-58
2022/09/15 20:23:44;;;;;;;19.10;10.90;;;;;;;18.02;66.68;97791.36;238524;1191;140417;-58
2022/09/15 20:28:48;;;;;;;14.30;10.30;;;;;;;17.98;66.77;97802.98;238235;1191;140463;-58
2022/09/15 20:33:53;;;;;;;13.50;9.70;;;;;;;17.95;66.70;97797.20;238690;1190;139739;-60
2022/09/15 20:38:57;;;;;;;14.90;9.30;;;;;;;17.87;66.54;97804.94;238481;1190;139321;-58
2022/09/15 20:44:02;;;;;;;15.00;9.20;;;;;;;17.84;66.76;97814.46;238798;1190;140420;-59
2022/09/15 20:49:07;;;;;;;15.30;10.60;;;;;;;17.83;66.80;97814.40;238725;1190;140080;-56
2022/09/15 20:54:11;;;;;;;13.40;10.60;;;;;;;17.80;66.96;97821.52;238999;1190;139919;-57
2022/09/15 20:59:15;;;;;;;16.30;10.90;;;;;;;17.77;67.14;97832.19;238980;1190;140733;-57
2022/09/15 21:04:18;;;;;;;19.30;12.10;;;;;;;17.73;67.00;97842.55;238774;1190;141218;-57
2022/09/15 21:09:22;;;;;;;18.60;12.00;;;;;;;17.71;67.28;97845.27;238696;1190;140081;-58
2022/09/15 21:14:25;;;;;;;17.50;12.50;;;;;;;17.71;67.28;97845.90;238921;1190;140461;-58
2022/09/15 21:19:30;;;;;;;17.60;11.70;;;;;;;17.72;67.62;97858.95;238878;1190;139970;-56
2022/09/15 21:24:33;;;;;;;16.00;11.10;;;;;;;17.68;67.23;97849.90;238548;1192;139552;-56
2022/09/15 21:29:36;;;;;;;17.90;10.10;;;;;;;17.64;67.50;97852.80;238777;1192;139427;-59
2022/09/15 21:34:40;;;;;;;16.50;10.50;;;;;;;17.65;67.55;97855.21;238692;1190;140123;-60
2022/09/15 21:39:43;;;;;;;15.70;10.50;;;;;;;17.65;67.44;97864.08;238868;1190;143295;-62
2022/09/15 21:44:47;;;;;;;18.60;11.80;;;;;;;17.61;67.57;97873.63;238692;1191;139055;-60
2022/09/15 21:49:50;;;;;;;16.90;12.30;;;;;;;17.57;67.63;97873.56;238514;1191;139682;-60
2022/09/15 21:54:53;;;;;;;16.30;11.60;;;;;;;17.50;67.50;97874.97;238643;1191;139471;-60
2022/09/15 21:59:56;;;;;;;17.00;11.80;;;;;;;17.48;67.56;97881.44;238864;1192;140124;-60
2022/09/15 22:05:00;;;;;;;24.10;12.60;;;;;;;17.52;67.88;97885.05;238922;1190;140496;-61
2022/09/15 22:10:03;;;;;;;18.50;12.10;;;;;;;17.53;68.02;97884.75;239167;1190;138660;-60
2022/09/15 22:15:07;;;;;;;19.60;12.40;;;;;;;17.52;67.75;97886.23;238657;1192;140040;-59
2022/09/15 22:20:10;;;;;;;18.30;12.50;;;;;;;17.46;67.76;97891.20;238758;1190;139350;-59
2022/09/15 22:25:14;;;;;;;16.60;10.90;;;;;;;17.36;67.75;97906.59;238896;1190;139949;-59
2022/09/15 22:30:23;;;;;;;17.20;10.70;;;;;;;17.32;67.87;97911.79;238665;1190;140111;-60
2022/09/15 22:35:26;;;;;;;17.50;10.90;;;;;;;17.31;67.85;97911.89;238818;1192;139842;-58
2022/09/15 22:40:30;;;;;;;15.20;11.00;;;;;;;17.31;67.97;97913.45;238362;1191;139933;-57
2022/09/15 22:45:33;;;;;;;19.50;11.10;;;;;;;17.26;68.09;97919.92;238412;1191;139661;-59
2022/09/15 22:50:36;;;;;;;16.80;9.40;;;;;;;17.24;68.11;97924.98;238638;1191;139574;-61
2022/09/15 22:55:40;;;;;;;13.90;8.80;;;;;;;17.22;68.06;97928.35;238258;1190;140218;-60
2022/09/15 23:00:44;;;;;;;17.60;9.50;;;;;;;17.22;67.81;97929.36;238904;1190;139934;-58
2022/09/15 23:05:55;;;;;;;19.20;9.40;;;;;;;17.19;67.91;97935.13;238760;1190;139671;-61
2022/09/15 23:11:11;;;;;;;16.60;9.50;;;;;;;17.14;67.81;97940.73;238828;1190;140029;-60
2022/09/15 23:16:16;;;;;;;16.70;9.00;;;;;;;17.08;67.94;97937.24;238822;1190;139198;-60
2022/09/15 23:21:20;;;;;;;17.30;9.10;;;;;;;17.10;67.83;97937.98;239028;1190;140245;-60
2022/09/15 23:26:24;;;;;;;12.60;8.60;;;;;;;17.09;67.84;97933.25;238922;1190;139458;-60